Maxfield, Maine
Current Conditions -  °F | °C
As of 5:53 PM on Friday 31 Oct 2014 (Local Time) from KBGR Reporting Station
Overcast Overcast  
Wind Chill: 43°   Ceiling: 5000
Heat Index: 46°   Visibility: 10mi
Dew Point: 33°   Wind: 6mph
Humidity: 61%   Direction: 360°N
Pressure: 30.04"   Gusts: NA
Location:  45.1871°N, 68.8153°W
Report Text: KBGR 312153Z 36005KT 10SM FEW042 BKN050 OVC200 08/01 A3004 RMK AO2 SLP175 BINOVC NW T00780006
Loading
Personal Weather Stations






























Interactive Weather Map
Tropical Storm Tracking
New forecast layout! Learn more

10-Day Weather Forecast

Advertisements
Track Severe Weather on mobile